sensor_id;sensor_type;location;lat;lon;timestamp;P1;durP1;ratioP1;P2;durP2;ratioP2
67941;SDS011;54731;42.600;23.476;2022-08-27T00:01:15;10.23;;;2.63;;
67941;SDS011;54731;42.600;23.476;2022-08-27T00:03:42;10.13;;;2.30;;
67941;SDS011;54731;42.600;23.476;2022-08-27T00:06:09;7.15;;;2.15;;
67941;SDS011;54731;42.600;23.476;2022-08-27T00:08:38;7.38;;;2.42;;
67941;SDS011;54731;42.600;23.476;2022-08-27T00:11:04;8.30;;;2.47;;
67941;SDS011;54731;42.600;23.476;2022-08-27T00:13:29;9.90;;;2.50;;
67941;SDS011;54731;42.600;23.476;2022-08-27T00:15:55;5.97;;;2.13;;
67941;SDS011;54731;42.600;23.476;2022-08-27T00:18:20;8.90;;;2.28;;
67941;SDS011;54731;42.600;23.476;2022-08-27T00:20:46;9.20;;;2.13;;
67941;SDS011;54731;42.600;23.476;2022-08-27T00:23:11;6.80;;;1.90;;
67941;SDS011;54731;42.600;23.476;2022-08-27T00:25:37;8.88;;;2.40;;
67941;SDS011;54731;42.600;23.476;2022-08-27T00:28:02;5.65;;;2.03;;
67941;SDS011;54731;42.600;23.476;2022-08-27T00:30:28;9.23;;;2.00;;
67941;SDS011;54731;42.600;23.476;2022-08-27T00:32:54;18.88;;;2.90;;
67941;SDS011;54731;42.600;23.476;2022-08-27T00:35:21;11.73;;;2.17;;
67941;SDS011;54731;42.600;23.476;2022-08-27T00:37:46;10.43;;;2.63;;
67941;SDS011;54731;42.600;23.476;2022-08-27T00:40:13;7.60;;;2.20;;
67941;SDS011;54731;42.600;23.476;2022-08-27T00:42:41;9.73;;;2.28;;
67941;SDS011;54731;42.600;23.476;2022-08-27T00:45:10;11.23;;;2.72;;
67941;SDS011;54731;42.600;23.476;2022-08-27T00:47:39;14.52;;;2.80;;
67941;SDS011;54731;42.600;23.476;2022-08-27T00:50:10;8.55;;;2.60;;
67941;SDS011;54731;42.600;23.476;2022-08-27T00:52:47;13.73;;;2.70;;
67941;SDS011;54731;42.600;23.476;2022-08-27T00:55:19;13.13;;;3.05;;
67941;SDS011;54731;42.600;23.476;2022-08-27T00:57:50;6.57;;;2.25;;
67941;SDS011;54731;42.600;23.476;2022-08-27T01:00:21;14.25;;;2.95;;
67941;SDS011;54731;42.600;23.476;2022-08-27T01:02:47;6.50;;;2.43;;
67941;SDS011;54731;42.600;23.476;2022-08-27T01:05:14;12.03;;;2.30;;
67941;SDS011;54731;42.600;23.476;2022-08-27T01:07:44;9.80;;;2.50;;
67941;SDS011;54731;42.600;23.476;2022-08-27T01:10:14;9.50;;;2.70;;
67941;SDS011;54731;42.600;23.476;2022-08-27T01:12:42;11.68;;;2.30;;
67941;SDS011;54731;42.600;23.476;2022-08-27T01:15:09;10.98;;;2.78;;
67941;SDS011;54731;42.600;23.476;2022-08-27T01:17:38;15.00;;;2.78;;
67941;SDS011;54731;42.600;23.476;2022-08-27T01:20:06;14.73;;;2.40;;
67941;SDS011;54731;42.600;23.476;2022-08-27T01:25:35;11.82;;;2.50;;
67941;SDS011;54731;42.600;23.476;2022-08-27T01:28:01;12.48;;;2.45;;
67941;SDS011;54731;42.600;23.476;2022-08-27T01:30:29;8.43;;;2.80;;
67941;SDS011;54731;42.600;23.476;2022-08-27T01:32:55;8.05;;;2.30;;
67941;SDS011;54731;42.600;23.476;2022-08-27T01:35:22;8.50;;;2.38;;
67941;SDS011;54731;42.600;23.476;2022-08-27T01:37:49;11.07;;;2.90;;
67941;SDS011;54731;42.600;23.476;2022-08-27T01:40:17;11.00;;;2.80;;
67941;SDS011;54731;42.600;23.476;2022-08-27T01:42:45;6.95;;;2.20;;
67941;SDS011;54731;42.600;23.476;2022-08-27T01:45:15;10.10;;;3.33;;
67941;SDS011;54731;42.600;23.476;2022-08-27T01:47:45;14.60;;;2.80;;
67941;SDS011;54731;42.600;23.476;2022-08-27T01:50:20;8.87;;;2.33;;
67941;SDS011;54731;42.600;23.476;2022-08-27T01:52:48;11.50;;;3.42;;
67941;SDS011;54731;42.600;23.476;2022-08-27T01:55:16;9.90;;;3.00;;
67941;SDS011;54731;42.600;23.476;2022-08-27T01:57:44;14.18;;;5.07;;
67941;SDS011;54731;42.600;23.476;2022-08-27T02:00:12;20.20;;;7.33;;
67941;SDS011;54731;42.600;23.476;2022-08-27T02:02:59;19.98;;;8.45;;
67941;SDS011;54731;42.600;23.476;2022-08-27T02:05:25;15.27;;;6.88;;
67941;SDS011;54731;42.600;23.476;2022-08-27T02:07:51;17.42;;;5.68;;
67941;SDS011;54731;42.600;23.476;2022-08-27T02:10:19;12.88;;;5.47;;
67941;SDS011;54731;42.600;23.476;2022-08-27T02:12:48;13.10;;;5.43;;
67941;SDS011;54731;42.600;23.476;2022-08-27T02:15:14;10.10;;;3.53;;
67941;SDS011;54731;42.600;23.476;2022-08-27T02:17:39;11.97;;;3.60;;
67941;SDS011;54731;42.600;23.476;2022-08-27T02:20:06;9.20;;;3.53;;
67941;SDS011;54731;42.600;23.476;2022-08-27T02:22:33;10.20;;;3.53;;
67941;SDS011;54731;42.600;23.476;2022-08-27T02:24:59;11.07;;;3.30;;
67941;SDS011;54731;42.600;23.476;2022-08-27T02:27:25;9.10;;;3.65;;
67941;SDS011;54731;42.600;23.476;2022-08-27T02:29:50;10.67;;;3.53;;
67941;SDS011;54731;42.600;23.476;2022-08-27T02:32:16;8.00;;;3.50;;
67941;SDS011;54731;42.600;23.476;2022-08-27T02:34:42;12.30;;;3.27;;
67941;SDS011;54731;42.600;23.476;2022-08-27T02:37:07;11.13;;;2.92;;
67941;SDS011;54731;42.600;23.476;2022-08-27T02:39:33;14.17;;;3.27;;
67941;SDS011;54731;42.600;23.476;2022-08-27T02:41:59;13.45;;;2.72;;
67941;SDS011;54731;42.600;23.476;2022-08-27T02:44:24;9.00;;;2.93;;
67941;SDS011;54731;42.600;23.476;2022-08-27T02:46:50;8.63;;;3.40;;
67941;SDS011;54731;42.600;23.476;2022-08-27T02:49:16;12.93;;;3.20;;
67941;SDS011;54731;42.600;23.476;2022-08-27T02:51:42;9.05;;;3.00;;
67941;SDS011;54731;42.600;23.476;2022-08-27T02:54:08;6.22;;;2.75;;
67941;SDS011;54731;42.600;23.476;2022-08-27T02:56:33;8.53;;;2.73;;
67941;SDS011;54731;42.600;23.476;2022-08-27T02:58:59;10.07;;;3.07;;
67941;SDS011;54731;42.600;23.476;2022-08-27T03:01:24;9.00;;;2.97;;
67941;SDS011;54731;42.600;23.476;2022-08-27T03:03:50;6.07;;;3.07;;
67941;SDS011;54731;42.600;23.476;2022-08-27T03:06:16;8.63;;;3.38;;
67941;SDS011;54731;42.600;23.476;2022-08-27T03:08:42;11.07;;;2.70;;
67941;SDS011;54731;42.600;23.476;2022-08-27T03:11:07;8.18;;;3.40;;
67941;SDS011;54731;42.600;23.476;2022-08-27T03:13:36;8.67;;;3.23;;
67941;SDS011;54731;42.600;23.476;2022-08-27T03:16:03;9.23;;;3.28;;
67941;SDS011;54731;42.600;23.476;2022-08-27T03:18:30;10.18;;;2.63;;
67941;SDS011;54731;42.600;23.476;2022-08-27T03:20:57;8.40;;;2.60;;
67941;SDS011;54731;42.600;23.476;2022-08-27T03:23:25;12.23;;;2.80;;
67941;SDS011;54731;42.600;23.476;2022-08-27T03:25:55;9.38;;;2.83;;
67941;SDS011;54731;42.600;23.476;2022-08-27T03:28:23;7.65;;;2.58;;
67941;SDS011;54731;42.600;23.476;2022-08-27T03:30:55;13.23;;;2.80;;
67941;SDS011;54731;42.600;23.476;2022-08-27T03:33:23;6.07;;;2.20;;
67941;SDS011;54731;42.600;23.476;2022-08-27T03:35:50;8.10;;;2.38;;
67941;SDS011;54731;42.600;23.476;2022-08-27T03:38:15;7.90;;;2.60;;
67941;SDS011;54731;42.600;23.476;2022-08-27T03:40:41;9.30;;;2.83;;
67941;SDS011;54731;42.600;23.476;2022-08-27T03:43:08;9.45;;;2.90;;
67941;SDS011;54731;42.600;23.476;2022-08-27T03:45:37;10.25;;;2.83;;
67941;SDS011;54731;42.600;23.476;2022-08-27T03:48:03;7.25;;;2.90;;
67941;SDS011;54731;42.600;23.476;2022-08-27T03:50:30;10.52;;;3.10;;
67941;SDS011;54731;42.600;23.476;2022-08-27T03:52:57;10.73;;;3.10;;
67941;SDS011;54731;42.600;23.476;2022-08-27T03:55:22;6.15;;;2.60;;
67941;SDS011;54731;42.600;23.476;2022-08-27T03:57:48;12.00;;;3.40;;
67941;SDS011;54731;42.600;23.476;2022-08-27T04:00:14;7.80;;;3.65;;
67941;SDS011;54731;42.600;23.476;2022-08-27T04:02:40;13.75;;;3.00;;
67941;SDS011;54731;42.600;23.476;2022-08-27T04:05:08;6.82;;;2.92;;
67941;SDS011;54731;42.600;23.476;2022-08-27T04:07:35;8.75;;;3.10;;
67941;SDS011;54731;42.600;23.476;2022-08-27T04:10:01;13.15;;;4.38;;
67941;SDS011;54731;42.600;23.476;2022-08-27T04:12:27;8.33;;;3.23;;
67941;SDS011;54731;42.600;23.476;2022-08-27T04:14:52;7.97;;;3.22;;
67941;SDS011;54731;42.600;23.476;2022-08-27T04:17:18;8.75;;;3.17;;
67941;SDS011;54731;42.600;23.476;2022-08-27T04:19:43;7.77;;;3.13;;
67941;SDS011;54731;42.600;23.476;2022-08-27T04:22:09;14.73;;;3.08;;
67941;SDS011;54731;42.600;23.476;2022-08-27T04:24:35;9.73;;;2.72;;
67941;SDS011;54731;42.600;23.476;2022-08-27T04:27:02;10.20;;;3.22;;
67941;SDS011;54731;42.600;23.476;2022-08-27T04:29:28;19.42;;;6.53;;
67941;SDS011;54731;42.600;23.476;2022-08-27T04:31:54;18.52;;;6.55;;
67941;SDS011;54731;42.600;23.476;2022-08-27T04:34:20;10.98;;;5.03;;
67941;SDS011;54731;42.600;23.476;2022-08-27T04:36:45;10.87;;;3.40;;
67941;SDS011;54731;42.600;23.476;2022-08-27T04:39:12;15.60;;;3.95;;
67941;SDS011;54731;42.600;23.476;2022-08-27T04:41:38;8.80;;;3.67;;
67941;SDS011;54731;42.600;23.476;2022-08-27T04:44:05;10.18;;;4.00;;
67941;SDS011;54731;42.600;23.476;2022-08-27T04:46:37;12.60;;;5.38;;
67941;SDS011;54731;42.600;23.476;2022-08-27T04:49:05;9.23;;;4.80;;
67941;SDS011;54731;42.600;23.476;2022-08-27T04:51:34;11.90;;;3.97;;
67941;SDS011;54731;42.600;23.476;2022-08-27T04:54:00;7.35;;;4.55;;
67941;SDS011;54731;42.600;23.476;2022-08-27T04:56:28;16.92;;;4.40;;
67941;SDS011;54731;42.600;23.476;2022-08-27T04:58:54;19.33;;;4.88;;
67941;SDS011;54731;42.600;23.476;2022-08-27T05:01:22;15.35;;;5.18;;
67941;SDS011;54731;42.600;23.476;2022-08-27T05:03:52;13.55;;;5.18;;
67941;SDS011;54731;42.600;23.476;2022-08-27T05:06:18;14.00;;;5.07;;
67941;SDS011;54731;42.600;23.476;2022-08-27T05:08:46;11.57;;;5.60;;
67941;SDS011;54731;42.600;23.476;2022-08-27T05:11:13;10.77;;;5.88;;
67941;SDS011;54731;42.600;23.476;2022-08-27T05:13:40;9.35;;;5.70;;
67941;SDS011;54731;42.600;23.476;2022-08-27T05:16:08;16.65;;;5.63;;
67941;SDS011;54731;42.600;23.476;2022-08-27T05:18:45;18.25;;;5.45;;
67941;SDS011;54731;42.600;23.476;2022-08-27T05:23:51;12.88;;;4.30;;
67941;SDS011;54731;42.600;23.476;2022-08-27T05:26:18;13.52;;;5.32;;
67941;SDS011;54731;42.600;23.476;2022-08-27T05:28:44;13.00;;;4.50;;
67941;SDS011;54731;42.600;23.476;2022-08-27T05:31:10;16.63;;;4.90;;
67941;SDS011;54731;42.600;23.476;2022-08-27T05:33:37;14.48;;;4.55;;
67941;SDS011;54731;42.600;23.476;2022-08-27T05:36:04;9.23;;;4.40;;
67941;SDS011;54731;42.600;23.476;2022-08-27T05:38:30;16.10;;;5.10;;
67941;SDS011;54731;42.600;23.476;2022-08-27T05:41:06;13.52;;;5.10;;
67941;SDS011;54731;42.600;23.476;2022-08-27T05:43:35;11.48;;;5.00;;
67941;SDS011;54731;42.600;23.476;2022-08-27T05:46:06;16.85;;;4.88;;
67941;SDS011;54731;42.600;23.476;2022-08-27T05:48:36;10.52;;;5.15;;
67941;SDS011;54731;42.600;23.476;2022-08-27T05:53:46;14.15;;;5.07;;
67941;SDS011;54731;42.600;23.476;2022-08-27T05:56:19;13.77;;;5.00;;
67941;SDS011;54731;42.600;23.476;2022-08-27T05:58:46;11.50;;;5.05;;
67941;SDS011;54731;42.600;23.476;2022-08-27T06:01:33;16.43;;;5.23;;
67941;SDS011;54731;42.600;23.476;2022-08-27T06:04:01;18.05;;;5.63;;
67941;SDS011;54731;42.600;23.476;2022-08-27T06:06:28;8.20;;;4.70;;
67941;SDS011;54731;42.600;23.476;2022-08-27T06:08:53;10.77;;;4.93;;
67941;SDS011;54731;42.600;23.476;2022-08-27T06:11:19;10.77;;;5.00;;
67941;SDS011;54731;42.600;23.476;2022-08-27T06:13:46;10.60;;;4.87;;
67941;SDS011;54731;42.600;23.476;2022-08-27T06:16:13;16.40;;;5.00;;
67941;SDS011;54731;42.600;23.476;2022-08-27T06:18:42;9.85;;;4.95;;
67941;SDS011;54731;42.600;23.476;2022-08-27T06:21:09;14.32;;;5.50;;
67941;SDS011;54731;42.600;23.476;2022-08-27T06:23:36;13.43;;;5.13;;
67941;SDS011;54731;42.600;23.476;2022-08-27T06:26:05;9.27;;;5.10;;
67941;SDS011;54731;42.600;23.476;2022-08-27T06:28:35;12.98;;;5.20;;
67941;SDS011;54731;42.600;23.476;2022-08-27T06:31:03;10.73;;;4.63;;
67941;SDS011;54731;42.600;23.476;2022-08-27T06:33:32;14.75;;;5.35;;
67941;SDS011;54731;42.600;23.476;2022-08-27T06:35:59;16.60;;;4.83;;
67941;SDS011;54731;42.600;23.476;2022-08-27T06:38:26;12.60;;;6.35;;
67941;SDS011;54731;42.600;23.476;2022-08-27T06:40:52;11.50;;;5.72;;
67941;SDS011;54731;42.600;23.476;2022-08-27T06:43:17;20.25;;;5.40;;
67941;SDS011;54731;42.600;23.476;2022-08-27T06:45:43;15.20;;;5.57;;
67941;SDS011;54731;42.600;23.476;2022-08-27T06:48:08;11.37;;;5.93;;
67941;SDS011;54731;42.600;23.476;2022-08-27T06:50:38;17.30;;;6.10;;
67941;SDS011;54731;42.600;23.476;2022-08-27T06:53:04;19.83;;;6.35;;
67941;SDS011;54731;42.600;23.476;2022-08-27T06:55:31;14.25;;;6.00;;
67941;SDS011;54731;42.600;23.476;2022-08-27T06:57:57;9.48;;;5.90;;
67941;SDS011;54731;42.600;23.476;2022-08-27T07:00:23;14.53;;;5.37;;
67941;SDS011;54731;42.600;23.476;2022-08-27T07:02:49;13.75;;;5.35;;
67941;SDS011;54731;42.600;23.476;2022-08-27T07:05:14;13.07;;;6.10;;
67941;SDS011;54731;42.600;23.476;2022-08-27T07:07:40;9.40;;;5.50;;
67941;SDS011;54731;42.600;23.476;2022-08-27T07:10:06;18.23;;;5.90;;
67941;SDS011;54731;42.600;23.476;2022-08-27T07:12:32;10.15;;;5.68;;
67941;SDS011;54731;42.600;23.476;2022-08-27T07:14:57;19.63;;;6.03;;
67941;SDS011;54731;42.600;23.476;2022-08-27T07:17:23;14.97;;;6.47;;
67941;SDS011;54731;42.600;23.476;2022-08-27T07:19:48;12.90;;;5.97;;
67941;SDS011;54731;42.600;23.476;2022-08-27T07:22:14;12.45;;;5.22;;
67941;SDS011;54731;42.600;23.476;2022-08-27T07:24:39;12.80;;;5.67;;
67941;SDS011;54731;42.600;23.476;2022-08-27T07:27:05;14.40;;;5.97;;
67941;SDS011;54731;42.600;23.476;2022-08-27T07:29:31;10.10;;;4.93;;
67941;SDS011;54731;42.600;23.476;2022-08-27T07:31:57;11.55;;;5.20;;
67941;SDS011;54731;42.600;23.476;2022-08-27T07:34:22;10.40;;;5.10;;
67941;SDS011;54731;42.600;23.476;2022-08-27T07:36:48;16.20;;;5.67;;
67941;SDS011;54731;42.600;23.476;2022-08-27T07:39:15;17.33;;;5.78;;
67941;SDS011;54731;42.600;23.476;2022-08-27T07:41:41;10.40;;;5.25;;
67941;SDS011;54731;42.600;23.476;2022-08-27T07:44:25;9.68;;;4.82;;
67941;SDS011;54731;42.600;23.476;2022-08-27T07:46:55;16.67;;;5.63;;
67941;SDS011;54731;42.600;23.476;2022-08-27T07:49:22;18.90;;;5.05;;
67941;SDS011;54731;42.600;23.476;2022-08-27T07:51:49;12.52;;;5.13;;
67941;SDS011;54731;42.600;23.476;2022-08-27T07:54:14;12.80;;;5.35;;
67941;SDS011;54731;42.600;23.476;2022-08-27T07:56:40;16.23;;;5.40;;
67941;SDS011;54731;42.600;23.476;2022-08-27T07:59:06;13.48;;;5.18;;
67941;SDS011;54731;42.600;23.476;2022-08-27T08:01:32;10.50;;;5.00;;
67941;SDS011;54731;42.600;23.476;2022-08-27T08:03:58;16.05;;;4.80;;
67941;SDS011;54731;42.600;23.476;2022-08-27T08:06:23;13.00;;;5.10;;
67941;SDS011;54731;42.600;23.476;2022-08-27T08:08:49;10.82;;;4.80;;
67941;SDS011;54731;42.600;23.476;2022-08-27T08:11:15;22.13;;;4.77;;
67941;SDS011;54731;42.600;23.476;2022-08-27T08:13:42;12.25;;;4.55;;
67941;SDS011;54731;42.600;23.476;2022-08-27T08:16:08;15.93;;;5.37;;
67941;SDS011;54731;42.600;23.476;2022-08-27T08:18:34;14.48;;;4.68;;
67941;SDS011;54731;42.600;23.476;2022-08-27T08:21:04;11.50;;;4.15;;
67941;SDS011;54731;42.600;23.476;2022-08-27T08:23:32;16.63;;;4.30;;
67941;SDS011;54731;42.600;23.476;2022-08-27T08:25:59;16.50;;;4.40;;
67941;SDS011;54731;42.600;23.476;2022-08-27T08:28:25;14.50;;;4.68;;
67941;SDS011;54731;42.600;23.476;2022-08-27T08:30:52;11.50;;;4.68;;
67941;SDS011;54731;42.600;23.476;2022-08-27T08:33:18;13.40;;;4.43;;
67941;SDS011;54731;42.600;23.476;2022-08-27T08:35:44;8.57;;;3.77;;
67941;SDS011;54731;42.600;23.476;2022-08-27T08:38:10;17.60;;;4.55;;
67941;SDS011;54731;42.600;23.476;2022-08-27T08:40:37;7.50;;;4.27;;
67941;SDS011;54731;42.600;23.476;2022-08-27T08:43:06;16.42;;;4.07;;
67941;SDS011;54731;42.600;23.476;2022-08-27T08:45:37;11.68;;;4.00;;
67941;SDS011;54731;42.600;23.476;2022-08-27T08:48:09;11.30;;;4.90;;
67941;SDS011;54731;42.600;23.476;2022-08-27T08:53:52;13.32;;;4.40;;
67941;SDS011;54731;42.600;23.476;2022-08-27T08:56:26;13.15;;;4.20;;
67941;SDS011;54731;42.600;23.476;2022-08-27T08:59:17;14.65;;;3.78;;
67941;SDS011;54731;42.600;23.476;2022-08-27T09:01:44;11.37;;;3.70;;
67941;SDS011;54731;42.600;23.476;2022-08-27T09:04:10;6.32;;;3.63;;
67941;SDS011;54731;42.600;23.476;2022-08-27T09:17:20;7.60;;;3.30;;
67941;SDS011;54731;42.600;23.476;2022-08-27T09:19:47;12.57;;;3.53;;
67941;SDS011;54731;42.600;23.476;2022-08-27T09:27:45;10.63;;;3.35;;
67941;SDS011;54731;42.600;23.476;2022-08-27T09:30:22;14.53;;;3.20;;
67941;SDS011;54731;42.600;23.476;2022-08-27T09:32:53;10.80;;;3.67;;
67941;SDS011;54731;42.600;23.476;2022-08-27T09:35:23;13.23;;;3.67;;
67941;SDS011;54731;42.600;23.476;2022-08-27T09:37:51;14.35;;;3.10;;
67941;SDS011;54731;42.600;23.476;2022-08-27T09:40:26;21.73;;;4.00;;
67941;SDS011;54731;42.600;23.476;2022-08-27T09:43:05;7.23;;;3.07;;
67941;SDS011;54731;42.600;23.476;2022-08-27T09:45:46;11.32;;;2.83;;
67941;SDS011;54731;42.600;23.476;2022-08-27T09:48:17;13.35;;;3.72;;
67941;SDS011;54731;42.600;23.476;2022-08-27T09:50:45;13.52;;;3.50;;
67941;SDS011;54731;42.600;23.476;2022-08-27T09:53:22;15.07;;;3.00;;
67941;SDS011;54731;42.600;23.476;2022-08-27T09:56:19;19.17;;;3.37;;
67941;SDS011;54731;42.600;23.476;2022-08-27T09:58:52;8.20;;;2.90;;
67941;SDS011;54731;42.600;23.476;2022-08-27T10:01:25;13.05;;;3.45;;
67941;SDS011;54731;42.600;23.476;2022-08-27T10:04:05;14.65;;;3.45;;
67941;SDS011;54731;42.600;23.476;2022-08-27T10:06:43;19.17;;;3.28;;
67941;SDS011;54731;42.600;23.476;2022-08-27T10:09:14;16.60;;;3.17;;
67941;SDS011;54731;42.600;23.476;2022-08-27T10:11:58;15.70;;;2.88;;
67941;SDS011;54731;42.600;23.476;2022-08-27T10:17:11;14.00;;;3.13;;
67941;SDS011;54731;42.600;23.476;2022-08-27T10:25:32;15.20;;;3.65;;
67941;SDS011;54731;42.600;23.476;2022-08-27T10:28:28;14.15;;;4.53;;
67941;SDS011;54731;42.600;23.476;2022-08-27T10:33:37;16.25;;;3.40;;
67941;SDS011;54731;42.600;23.476;2022-08-27T10:36:10;19.77;;;3.60;;
67941;SDS011;54731;42.600;23.476;2022-08-27T10:38:49;17.27;;;3.30;;
67941;SDS011;54731;42.600;23.476;2022-08-27T10:41:25;16.63;;;3.20;;
67941;SDS011;54731;42.600;23.476;2022-08-27T10:44:03;14.32;;;3.30;;
67941;SDS011;54731;42.600;23.476;2022-08-27T10:49:39;15.07;;;3.63;;
67941;SDS011;54731;42.600;23.476;2022-08-27T11:00:07;11.38;;;3.45;;
67941;SDS011;54731;42.600;23.476;2022-08-27T11:02:44;17.83;;;3.75;;
67941;SDS011;54731;42.600;23.476;2022-08-27T11:05:15;13.87;;;3.30;;
67941;SDS011;54731;42.600;23.476;2022-08-27T11:10:50;19.35;;;3.72;;
67941;SDS011;54731;42.600;23.476;2022-08-27T11:16:09;15.73;;;3.30;;
67941;SDS011;54731;42.600;23.476;2022-08-27T11:18:57;11.30;;;3.20;;
67941;SDS011;54731;42.600;23.476;2022-08-27T11:27:27;13.95;;;4.63;;
67941;SDS011;54731;42.600;23.476;2022-08-27T11:32:34;17.57;;;4.77;;
67941;SDS011;54731;42.600;23.476;2022-08-27T11:35:37;14.23;;;4.10;;
67941;SDS011;54731;42.600;23.476;2022-08-27T11:38:18;9.02;;;4.93;;
67941;SDS011;54731;42.600;23.476;2022-08-27T11:41:15;18.73;;;4.82;;
67941;SDS011;54731;42.600;23.476;2022-08-27T11:43:52;17.60;;;3.95;;
67941;SDS011;54731;42.600;23.476;2022-08-27T11:46:22;16.23;;;4.40;;
67941;SDS011;54731;42.600;23.476;2022-08-27T11:48:54;9.48;;;4.57;;
67941;SDS011;54731;42.600;23.476;2022-08-27T11:53:59;15.10;;;4.13;;
67941;SDS011;54731;42.600;23.476;2022-08-27T11:59:28;13.43;;;5.00;;
67941;SDS011;54731;42.600;23.476;2022-08-27T12:01:57;9.70;;;4.70;;
67941;SDS011;54731;42.600;23.476;2022-08-27T12:04:37;14.68;;;5.20;;
67941;SDS011;54731;42.600;23.476;2022-08-27T12:07:06;15.75;;;5.35;;
67941;SDS011;54731;42.600;23.476;2022-08-27T12:17:50;14.32;;;4.38;;
67941;SDS011;54731;42.600;23.476;2022-08-27T12:37:28;14.50;;;4.03;;
67941;SDS011;54731;42.600;23.476;2022-08-27T12:39:58;11.40;;;4.37;;
67941;SDS011;54731;42.600;23.476;2022-08-27T12:42:27;16.95;;;4.50;;
67941;SDS011;54731;42.600;23.476;2022-08-27T12:44:54;11.47;;;4.30;;
67941;SDS011;54731;42.600;23.476;2022-08-27T12:47:21;10.68;;;3.92;;
67941;SDS011;54731;42.600;23.476;2022-08-27T12:49:50;14.65;;;4.63;;
67941;SDS011;54731;42.600;23.476;2022-08-27T13:00:22;9.85;;;4.10;;
67941;SDS011;54731;42.600;23.476;2022-08-27T13:05:38;9.07;;;4.78;;
67941;SDS011;54731;42.600;23.476;2022-08-27T13:08:16;9.23;;;4.10;;
67941;SDS011;54731;42.600;23.476;2022-08-27T13:10:51;10.77;;;4.25;;
67941;SDS011;54731;42.600;23.476;2022-08-27T13:13:18;14.75;;;4.75;;
67941;SDS011;54731;42.600;23.476;2022-08-27T13:15:47;12.60;;;4.30;;
67941;SDS011;54731;42.600;23.476;2022-08-27T13:18:16;18.17;;;4.70;;
67941;SDS011;54731;42.600;23.476;2022-08-27T13:20:42;11.38;;;4.20;;
67941;SDS011;54731;42.600;23.476;2022-08-27T13:23:15;11.30;;;4.43;;
67941;SDS011;54731;42.600;23.476;2022-08-27T13:28:45;14.60;;;4.05;;
67941;SDS011;54731;42.600;23.476;2022-08-27T13:31:12;15.07;;;4.17;;
67941;SDS011;54731;42.600;23.476;2022-08-27T13:33:38;9.35;;;3.80;;
67941;SDS011;54731;42.600;23.476;2022-08-27T13:36:05;13.00;;;4.65;;
67941;SDS011;54731;42.600;23.476;2022-08-27T13:38:35;16.73;;;3.92;;
67941;SDS011;54731;42.600;23.476;2022-08-27T13:41:05;14.82;;;4.32;;
67941;SDS011;54731;42.600;23.476;2022-08-27T13:46:14;11.23;;;4.35;;
67941;SDS011;54731;42.600;23.476;2022-08-27T13:48:43;11.52;;;5.32;;
67941;SDS011;54731;42.600;23.476;2022-08-27T13:51:11;12.52;;;4.65;;
67941;SDS011;54731;42.600;23.476;2022-08-27T13:53:42;17.65;;;4.15;;
67941;SDS011;54731;42.600;23.476;2022-08-27T13:56:32;15.23;;;4.43;;
67941;SDS011;54731;42.600;23.476;2022-08-27T13:59:13;13.48;;;4.68;;
67941;SDS011;54731;42.600;23.476;2022-08-27T14:04:35;15.52;;;4.97;;
67941;SDS011;54731;42.600;23.476;2022-08-27T14:07:05;7.88;;;4.20;;
67941;SDS011;54731;42.600;23.476;2022-08-27T14:09:34;11.37;;;4.93;;
67941;SDS011;54731;42.600;23.476;2022-08-27T14:12:09;16.05;;;4.57;;
67941;SDS011;54731;42.600;23.476;2022-08-27T14:14:45;9.80;;;4.90;;
67941;SDS011;54731;42.600;23.476;2022-08-27T14:17:20;13.35;;;4.63;;
67941;SDS011;54731;42.600;23.476;2022-08-27T14:19:50;9.15;;;4.85;;
67941;SDS011;54731;42.600;23.476;2022-08-27T14:22:16;9.27;;;4.43;;
67941;SDS011;54731;42.600;23.476;2022-08-27T14:24:42;8.18;;;4.40;;
67941;SDS011;54731;42.600;23.476;2022-08-27T14:27:08;10.83;;;4.10;;
67941;SDS011;54731;42.600;23.476;2022-08-27T14:29:37;6.22;;;3.80;;
67941;SDS011;54731;42.600;23.476;2022-08-27T14:32:03;11.85;;;4.70;;
67941;SDS011;54731;42.600;23.476;2022-08-27T14:34:30;9.13;;;4.65;;
67941;SDS011;54731;42.600;23.476;2022-08-27T14:36:55;8.70;;;4.53;;
67941;SDS011;54731;42.600;23.476;2022-08-27T14:39:21;8.87;;;4.37;;
67941;SDS011;54731;42.600;23.476;2022-08-27T14:41:47;12.48;;;4.32;;
67941;SDS011;54731;42.600;23.476;2022-08-27T14:44:12;7.30;;;3.93;;
67941;SDS011;54731;42.600;23.476;2022-08-27T14:46:38;9.33;;;4.37;;
67941;SDS011;54731;42.600;23.476;2022-08-27T14:49:09;12.23;;;3.90;;
67941;SDS011;54731;42.600;23.476;2022-08-27T14:51:37;14.60;;;4.37;;
67941;SDS011;54731;42.600;23.476;2022-08-27T14:54:07;12.85;;;5.00;;
67941;SDS011;54731;42.600;23.476;2022-08-27T14:56:33;13.73;;;5.18;;
67941;SDS011;54731;42.600;23.476;2022-08-27T14:59:01;16.93;;;4.83;;
67941;SDS011;54731;42.600;23.476;2022-08-27T15:01:27;9.65;;;5.10;;
67941;SDS011;54731;42.600;23.476;2022-08-27T15:03:53;8.32;;;4.57;;
67941;SDS011;54731;42.600;23.476;2022-08-27T15:06:20;16.93;;;4.60;;
67941;SDS011;54731;42.600;23.476;2022-08-27T15:08:47;10.10;;;4.68;;
67941;SDS011;54731;42.600;23.476;2022-08-27T15:11:31;9.48;;;4.50;;
67941;SDS011;54731;42.600;23.476;2022-08-27T15:13:59;10.23;;;4.68;;
67941;SDS011;54731;42.600;23.476;2022-08-27T15:16:30;10.83;;;4.43;;
67941;SDS011;54731;42.600;23.476;2022-08-27T15:18:59;19.02;;;4.65;;
67941;SDS011;54731;42.600;23.476;2022-08-27T15:21:25;8.90;;;4.68;;
67941;SDS011;54731;42.600;23.476;2022-08-27T15:24:39;10.30;;;4.13;;
67941;SDS011;54731;42.600;23.476;2022-08-27T15:26:43;15.85;;;4.05;;
67941;SDS011;54731;42.600;23.476;2022-08-27T15:29:09;14.27;;;4.70;;
67941;SDS011;54731;42.600;23.476;2022-08-27T15:31:34;14.50;;;4.05;;
67941;SDS011;54731;42.600;23.476;2022-08-27T15:34:00;11.57;;;4.33;;
67941;SDS011;54731;42.600;23.476;2022-08-27T15:36:26;13.30;;;4.47;;
67941;SDS011;54731;42.600;23.476;2022-08-27T15:38:51;14.55;;;3.92;;
67941;SDS011;54731;42.600;23.476;2022-08-27T15:41:18;12.67;;;4.20;;
67941;SDS011;54731;42.600;23.476;2022-08-27T15:43:43;11.80;;;4.47;;
67941;SDS011;54731;42.600;23.476;2022-08-27T15:46:09;10.87;;;3.90;;
67941;SDS011;54731;42.600;23.476;2022-08-27T15:48:34;14.87;;;4.67;;
67941;SDS011;54731;42.600;23.476;2022-08-27T15:51:02;13.50;;;4.65;;
67941;SDS011;54731;42.600;23.476;2022-08-27T15:53:30;11.70;;;4.80;;
67941;SDS011;54731;42.600;23.476;2022-08-27T15:55:56;12.70;;;4.15;;
67941;SDS011;54731;42.600;23.476;2022-08-27T15:58:22;11.57;;;3.65;;
67941;SDS011;54731;42.600;23.476;2022-08-27T16:00:47;11.27;;;4.50;;
67941;SDS011;54731;42.600;23.476;2022-08-27T16:03:13;13.95;;;4.03;;
67941;SDS011;54731;42.600;23.476;2022-08-27T16:05:41;13.98;;;4.03;;
67941;SDS011;54731;42.600;23.476;2022-08-27T16:08:08;13.23;;;3.90;;
67941;SDS011;54731;42.600;23.476;2022-08-27T16:10:34;7.72;;;3.85;;
67941;SDS011;54731;42.600;23.476;2022-08-27T16:13:00;12.13;;;3.87;;
67941;SDS011;54731;42.600;23.476;2022-08-27T16:15:26;11.32;;;3.60;;
67941;SDS011;54731;42.600;23.476;2022-08-27T16:17:55;13.55;;;4.00;;
67941;SDS011;54731;42.600;23.476;2022-08-27T16:20:23;11.60;;;3.90;;
67941;SDS011;54731;42.600;23.476;2022-08-27T16:22:50;13.73;;;3.53;;
67941;SDS011;54731;42.600;23.476;2022-08-27T16:25:16;10.00;;;4.07;;
67941;SDS011;54731;42.600;23.476;2022-08-27T16:27:44;13.35;;;4.00;;
67941;SDS011;54731;42.600;23.476;2022-08-27T16:30:11;10.55;;;4.45;;